createdAt,value
2022-09-12T00:10:38.085Z,11.3
2022-09-12T00:20:39.781Z,11.1
2022-09-12T00:30:41.784Z,11
2022-09-12T01:00:47.619Z,10.9
2022-09-12T01:10:50.060Z,10.8
2022-09-12T01:40:56.024Z,10.5
2022-09-12T01:50:58.520Z,10.3
2022-09-12T02:11:03.419Z,10.3
2022-09-12T02:51:12.111Z,10.1
2022-09-12T03:01:13.892Z,10
2022-09-12T03:11:22.579Z,9.9
2022-09-12T03:21:17.585Z,10
2022-09-12T03:31:26.608Z,9.7
2022-09-12T03:41:35.941Z,9.8
2022-09-12T03:51:31.480Z,9.8
2022-09-12T04:11:35.753Z,9.7
2022-09-12T04:21:44.680Z,9.6
2022-09-12T04:31:40.251Z,9.5
2022-09-12T04:41:35.138Z,9.4
2022-09-12T04:51:44.162Z,9.4
2022-09-12T05:01:39.583Z,9.4
2022-09-12T05:12:04.465Z,9.5
2022-09-12T05:21:44.130Z,9.4
2022-09-12T06:12:02.166Z,11.1
2022-09-12T06:52:18.114Z,12.4
2022-09-12T07:02:05.838Z,12.7
2022-09-12T07:12:14.731Z,13.1
2022-09-12T07:22:10.840Z,13.5
2022-09-12T07:32:12.371Z,14
2022-09-12T07:42:14.100Z,14.4
2022-09-12T07:52:16.509Z,14.6
2022-09-12T08:12:21.587Z,15.2
2022-09-12T08:22:23.284Z,15.5
2022-09-12T08:32:25.224Z,15.9
2022-09-12T08:42:27.647Z,16.1
2022-09-12T08:52:29.583Z,16.5
2022-09-12T09:02:38.444Z,16.8
2022-09-12T09:12:40.784Z,17.5
2022-09-12T09:22:42.958Z,17.9
2022-09-12T09:32:37.945Z,18
2022-09-12T09:52:42.912Z,19
2022-09-12T10:02:44.941Z,19
2022-09-12T10:12:47.344Z,19.3
2022-09-12T10:52:55.471Z,21.2
2022-09-12T11:12:59.547Z,21.6
2022-09-12T11:53:07.013Z,21.9
2022-09-12T12:13:14.148Z,23.1
2022-09-12T12:33:15.423Z,25.1
2022-09-12T12:43:18.018Z,25.3
2022-09-12T13:03:22.532Z,25.1
2022-09-12T13:13:24.212Z,23.8
2022-09-12T13:23:26.157Z,23.3
2022-09-12T13:33:28.573Z,23.5
2022-09-12T13:43:30.433Z,23.4
2022-09-12T13:53:32.526Z,23.3
2022-09-12T14:03:34.913Z,23.3
2022-09-12T14:13:44.493Z,23.5
2022-09-12T14:23:46.476Z,23.8
2022-09-12T14:43:43.871Z,23.7
2022-09-12T14:53:45.738Z,23.4
2022-09-12T15:13:57.001Z,23.4
2022-09-12T15:23:59.147Z,23.8
2022-09-12T15:44:04.121Z,23.3
2022-09-12T15:53:59.025Z,23.3
2022-09-12T16:04:01.127Z,23.3
2022-09-12T16:14:03.258Z,23.4
2022-09-12T16:24:05.136Z,22.8
2022-09-12T16:34:14.675Z,22.6
2022-09-12T16:44:09.776Z,22.5
2022-09-12T16:54:12.008Z,22.3
2022-09-12T17:04:14.440Z,22
2022-09-12T17:14:16.793Z,21.9
2022-09-12T17:24:18.966Z,21.5
2022-09-12T17:34:21.591Z,21
2022-09-12T17:44:23.275Z,20.6
2022-09-12T17:54:25.228Z,20.2
2022-09-12T18:04:27.071Z,19.9
2022-09-12T18:44:34.717Z,18.4
2022-09-12T18:54:37.195Z,18.2
2022-09-12T19:04:39.091Z,17.8
2022-09-12T19:24:43.235Z,17.4
2022-09-12T19:34:45.275Z,17.4
2022-09-12T19:44:47.341Z,17.2
2022-09-12T19:54:49.477Z,17.2
2022-09-12T20:04:51.221Z,17
2022-09-12T20:14:53.142Z,16.7
2022-09-12T20:24:55.453Z,16.5
2022-09-12T20:34:57.562Z,16.3
2022-09-12T20:44:59.587Z,16.2
2022-09-12T20:55:01.244Z,15.9
2022-09-12T21:05:03.128Z,15.8
2022-09-12T21:15:05.057Z,15.7
2022-09-12T21:35:09.232Z,15.6
2022-09-12T21:45:11.395Z,15.6
2022-09-12T21:55:13.481Z,15.6
2022-09-12T22:15:39.319Z,15.2
2022-09-12T22:25:19.901Z,15.2
2022-09-12T22:25:26.809Z,15.2
2022-09-12T22:45:31.309Z,15.1
2022-09-12T22:55:33.929Z,15
2022-09-12T23:05:36.149Z,15
2022-09-12T23:15:38.542Z,15
2022-09-12T23:25:40.219Z,15
2022-09-12T23:35:42.787Z,15
2022-09-12T23:45:45.166Z,14.9
2022-09-12T23:55:46.881Z,14.9
